Time;durP1;ratioP1;P1;durP2;ratioP2;P2;SDS_P1;SDS_P2;PMS_P1;PMS_P2;Temp;Humidity;BMP_temperature;BMP_pressure;BME280_temperature;BME280_humidity;BME280_pressure;Samples;Min_cycle;Max_cycle;Signal;HPM_P1;HPM_P2
2021/10/21 00:02:41;;;;;;;11.93;7.33;;;;;;;16.72;100.00;98856.03;712311;1208;115282;-79
2021/10/21 00:17:44;;;;;;;13.63;7.10;;;;;;;16.71;100.00;98840.36;712639;1203;115649;-79
2021/10/21 00:32:46;;;;;;;16.05;7.55;;;;;;;16.71;100.00;98819.17;712585;1203;114133;-78
2021/10/21 00:47:48;;;;;;;11.23;7.23;;;;;;;16.69;100.00;98779.65;712623;1182;114029;-80
2021/10/21 01:02:50;;;;;;;11.15;7.03;;;;;;;16.76;100.00;98784.91;712584;1205;115314;-80
2021/10/21 01:17:54;;;;;;;13.65;7.45;;;;;;;16.71;99.35;98756.44;712351;1180;114680;-78
2021/10/21 01:32:56;;;;;;;11.70;6.53;;;;;;;16.69;99.53;98720.60;712474;1207;113877;-79
2021/10/21 01:48:01;;;;;;;10.65;7.10;;;;;;;16.73;98.19;98690.02;712358;1196;113979;-79
2021/10/21 02:03:03;;;;;;;14.33;7.70;;;;;;;16.59;98.02;98679.53;712493;1180;113876;-80
2021/10/21 02:18:06;;;;;;;12.30;8.23;;;;;;;16.62;97.37;98638.59;712892;1179;113965;-81
2021/10/21 02:33:08;;;;;;;12.65;7.90;;;;;;;16.60;96.11;98620.27;712494;1203;115186;-79
2021/10/21 02:48:10;;;;;;;14.37;8.23;;;;;;;16.62;95.18;98638.59;712381;1180;113853;-79
2021/10/21 03:03:13;;;;;;;12.75;8.20;;;;;;;16.67;94.01;98641.41;712608;1180;114062;-78
2021/10/21 03:18:15;;;;;;;12.60;7.60;;;;;;;16.55;94.35;98627.22;712374;1203;114500;-79
2021/10/21 03:33:17;;;;;;;12.38;7.65;;;;;;;16.48;94.46;98587.56;712476;1206;115427;-79
2021/10/21 03:48:19;;;;;;;13.30;7.35;;;;;;;16.44;95.05;98583.73;712480;1205;115217;-79
2021/10/21 04:03:21;;;;;;;11.87;8.40;;;;;;;16.44;95.00;98542.22;712430;1192;114014;-79
2021/10/21 04:18:24;;;;;;;10.00;7.10;;;;;;;16.43;95.58;98540.59;712473;1203;114090;-78
2021/10/21 04:33:27;;;;;;;10.70;7.20;;;;;;;16.40;94.32;98484.64;712833;1205;114137;-79
2021/10/21 04:48:29;;;;;;;15.17;9.27;;;;;;;16.39;94.57;98472.42;712626;1180;114158;-79
2021/10/21 05:03:33;;;;;;;11.88;8.00;;;;;;;16.23;94.58;98477.27;712781;1205;114374;-79
2021/10/21 05:18:35;;;;;;;14.40;8.00;;;;;;;16.21;94.52;98438.82;712637;1208;115732;-80
2021/10/21 05:33:38;;;;;;;17.83;10.70;;;;;;;16.14;94.38;98389.42;712559;1203;115013;-77
2021/10/21 05:48:40;;;;;;;14.28;8.03;;;;;;;16.20;93.77;98381.64;712964;1206;114344;-76
2021/10/21 06:03:43;;;;;;;12.83;9.40;;;;;;;15.99;95.33;98382.85;713127;1209;115564;-78
2021/10/21 06:18:45;;;;;;;19.30;11.93;;;;;;;15.76;97.24;98313.66;712938;1182;114003;-78
2021/10/21 06:33:49;;;;;;;16.20;10.05;;;;;;;15.80;97.76;98306.94;712973;1203;114085;-84
2021/10/21 06:48:51;;;;;;;11.63;7.93;;;;;;;15.76;98.46;98274.00;712994;1203;115036;-86
2021/10/21 07:03:53;;;;;;;12.65;8.20;;;;;;;15.81;98.49;98262.83;713219;1205;114359;-72
2021/10/21 07:18:55;;;;;;;19.65;12.90;;;;;;;15.92;98.29;98243.58;714884;1203;114490;-72
2021/10/21 07:33:57;;;;;;;13.90;7.65;;;;;;;16.16;97.10;98206.69;712982;1203;114297;-72
2021/10/21 07:49:00;;;;;;;11.40;7.50;;;;;;;16.31;96.86;98171.91;713189;1203;114756;-73
2021/10/21 08:04:03;;;;;;;16.40;9.33;;;;;;;16.28;97.83;98152.00;712986;1203;115433;-72
2021/10/21 08:19:05;;;;;;;14.57;8.70;;;;;;;16.35;98.65;98144.00;713112;1207;113874;-73
2021/10/21 08:34:07;;;;;;;13.80;8.05;;;;;;;16.45;99.86;98136.30;713064;1202;115295;-72
2021/10/21 08:49:11;;;;;;;10.03;5.93;;;;;;;16.65;99.84;98161.67;713580;1203;113879;-79
2021/10/21 09:04:27;;;;;;;15.87;12.00;;;;;;;16.34;100.00;98187.34;713011;1203;115456;-73
2021/10/21 09:19:31;;;;;;;11.27;8.00;;;;;;;16.02;100.00;98144.41;712711;1209;114829;-73
2021/10/21 09:34:52;;;;;;;10.60;9.20;;;;;;;15.83;100.00;98120.64;712577;1203;114655;-73
2021/10/21 09:49:56;;;;;;;13.27;8.60;;;;;;;16.04;100.00;98063.83;715309;1207;114632;-73
2021/10/21 10:05:01;;;;;;;15.50;8.60;;;;;;;16.29;100.00;97986.95;712753;1203;114265;-72
2021/10/21 10:20:05;;;;;;;16.97;10.60;;;;;;;16.09;100.00;97984.63;712827;1203;114310;-72
2021/10/21 10:35:09;;;;;;;15.80;11.00;;;;;;;16.27;100.00;97951.18;712365;1180;115246;-73
2021/10/21 10:50:35;;;;;;;21.07;11.57;;;;;;;16.59;100.00;97925.19;712510;1205;115323;-73
2021/10/21 11:05:46;;;;;;;13.47;7.47;;;;;;;18.35;95.68;97864.70;712746;1180;114390;-80
2021/10/21 11:20:49;;;;;;;40.00;18.03;;;;;;;18.34;90.36;97877.16;712868;1206;115206;-89
2021/10/21 11:35:53;;;;;;;15.90;8.90;;;;;;;17.79;93.71;97834.44;714065;1203;114184;-77
2021/10/21 11:50:56;;;;;;;11.45;7.00;;;;;;;17.95;93.30;97818.79;712915;1203;115617;-79
2021/10/21 12:05:59;;;;;;;13.53;6.30;;;;;;;13.47;100.00;97867.03;715874;1169;114893;-77
2021/10/21 12:21:05;;;;;;;9.50;4.90;;;;;;;12.20;100.00;97822.84;712986;1179;114662;-79
2021/10/21 12:36:19;;;;;;;17.45;8.03;;;;;;;12.81;100.00;97824.23;712955;1203;114204;-78
2021/10/21 12:51:21;;;;;;;9.70;6.03;;;;;;;14.01;100.00;97812.08;713470;1206;115406;-78
2021/10/21 13:06:24;;;;;;;7.10;4.80;;;;;;;14.60;100.00;97845.95;713666;1208;114439;-73
2021/10/21 13:21:26;;;;;;;12.10;5.10;;;;;;;16.28;100.00;97823.97;713674;1203;113899;-77
2021/10/21 13:36:28;;;;;;;7.05;3.53;;;;;;;21.91;79.40;97801.17;713481;1203;115336;-87
2021/10/21 13:51:32;;;;;;;5.63;2.20;;;;;;;17.93;74.96;97826.17;714197;1203;113793;-88
2021/10/21 14:06:35;;;;;;;12.20;2.53;;;;;;;16.67;79.70;97820.81;716285;1203;113830;-89
2021/10/21 14:21:38;;;;;;;20.77;3.30;;;;;;;16.79;77.28;97860.48;715084;1203;114158;-89
2021/10/21 14:36:41;;;;;;;14.53;2.63;;;;;;;16.61;73.29;97895.84;724863;1203;114076;-88
2021/10/21 14:51:44;;;;;;;16.35;4.75;;;;;;;16.18;74.58;97931.39;717161;1203;113332;-89
2021/10/21 15:37:12;;;;;;;8.43;3.63;;;;;;;14.41;84.78;98159.83;714299;1179;113846;-88
2021/10/21 16:23:03;;;;;;;6.00;3.25;;;;;;;13.03;88.12;98374.01;713065;1203;113821;-78
2021/10/21 16:38:06;;;;;;;;;;;;;;;12.72;90.47;98420.84;713136;1192;114623;-77
2021/10/21 16:53:27;;;;;;;10.80;6.00;;;;;;;12.87;90.61;98425.17;712725;1203;100900;-77
2021/10/21 17:08:31;;;;;;;6.30;2.37;;;;;;;12.80;91.19;98444.36;713073;1203;114419;-78
2021/10/21 17:23:35;;;;;;;3.83;1.93;;;;;;;13.06;90.09;98456.00;712790;1180;114222;-79
2021/10/21 17:38:38;;;;;;;4.40;2.43;;;;;;;13.13;90.42;98469.19;712556;1182;113693;-77
2021/10/21 17:53:42;;;;;;;8.20;4.17;;;;;;;13.05;89.37;98485.98;712891;1185;128975;-83
2021/10/21 18:08:45;;;;;;;7.45;3.10;;;;;;;13.16;87.33;98505.67;712325;1180;113835;-78
2021/10/21 18:23:48;;;;;;;4.53;2.10;;;;;;;13.03;85.47;98497.72;712475;1206;113646;-80
2021/10/21 18:38:52;;;;;;;2.60;1.58;;;;;;;12.74;83.46;98518.79;712376;1205;115231;-78
2021/10/21 18:54:02;;;;;;;3.10;1.25;;;;;;;12.30;82.08;98533.04;712475;1183;113889;-82
2021/10/21 19:09:05;;;;;;;3.60;1.70;;;;;;;12.03;82.80;98540.66;712579;1179;115596;-80
2021/10/21 19:24:07;;;;;;;4.70;1.80;;;;;;;11.89;84.19;98565.13;712755;1203;115047;-79
2021/10/21 20:30:42;;;;;;;4.93;2.40;;;;;;;11.49;93.33;98631.97;716867;1187;26438;-81
2021/10/21 21:42:47;;;;;;;20.90;8.77;;;;;;;9.43;100.00;98654.30;715487;1175;23193;-83
2021/10/21 21:57:53;;;;;;;4.53;2.20;;;;;;;9.20;100.00;98677.74;714626;1176;113191;-82
2021/10/21 22:12:55;;;;;;;3.30;2.00;;;;;;;8.98;100.00;98681.84;716481;1200;113889;-82
2021/10/21 22:27:57;;;;;;;3.40;1.50;;;;;;;8.99;100.00;98710.45;717867;1200;113207;-84
2021/10/21 22:42:59;;;;;;;2.50;1.07;;;;;;;9.04;100.00;98730.89;715274;1200;113429;-84
2021/10/21 22:58:04;;;;;;;1.93;1.35;;;;;;;9.07;100.00;98751.48;715457;1200;114823;-84
2021/10/21 23:13:09;;;;;;;2.45;1.53;;;;;;;8.91;100.00;98741.03;717406;1199;113937;-83
2021/10/21 23:28:13;;;;;;;3.50;1.00;;;;;;;8.76;100.00;98774.81;715114;1203;112204;-83
2021/10/21 23:43:16;;;;;;;5.00;1.03;;;;;;;8.56;100.00;98829.98;714609;1176;113285;-83
2021/10/21 23:58:18;;;;;;;1.27;0.80;;;;;;;8.81;100.00;98849.17;714672;1194;113744;-79
